Time;durP1;ratioP1;P1;durP2;ratioP2;P2;SDS_P1;SDS_P2;PMS_P1;PMS_P2;Temp;Humidity;BMP_temperature;BMP_pressure;BME280_temperature;BME280_humidity;BME280_pressure;Samples;Min_cycle;Max_cycle;Signal;HPM_P1;HPM_P2
2022/03/26 00:00:33;;;;;;;18.15;9.38;;;;;;;6.16;100.00;102671.72;4943228;28;20035;-77
2022/03/26 00:02:58;;;;;;;21.17;9.73;;;;;;;6.16;100.00;102663.72;4944415;28;20035;-77
2022/03/26 00:05:24;;;;;;;12.75;7.68;;;;;;;6.26;100.00;102676.50;4942081;28;20051;-77
2022/03/26 00:07:50;;;;;;;21.08;10.27;;;;;;;6.25;100.00;102672.97;4942491;28;20109;-77
2022/03/26 00:10:15;;;;;;;17.50;8.50;;;;;;;6.24;100.00;102670.38;4926742;29;20039;-77
2022/03/26 00:12:41;;;;;;;17.00;9.93;;;;;;;6.13;100.00;102669.25;4925925;29;20039;-77
2022/03/26 00:15:08;;;;;;;20.25;10.27;;;;;;;6.00;100.00;102671.03;4926640;29;20074;-78
2022/03/26 00:17:34;;;;;;;19.38;10.05;;;;;;;6.01;100.00;102683.44;4947274;28;20074;-77
2022/03/26 00:20:03;;;;;;;17.67;9.35;;;;;;;5.97;100.00;102691.72;4926202;28;20043;-77
2022/03/26 00:22:29;;;;;;;18.38;10.07;;;;;;;5.77;100.00;102668.94;4929212;29;20105;-77
2022/03/26 00:24:54;;;;;;;18.42;9.25;;;;;;;5.73;100.00;102685.16;4946087;28;20082;-77
2022/03/26 00:27:20;;;;;;;26.42;12.38;;;;;;;5.77;100.00;102688.50;4941489;28;20075;-77
2022/03/26 00:29:46;;;;;;;20.70;9.82;;;;;;;5.84;100.00;102687.13;4913707;29;20124;-77
2022/03/26 00:32:12;;;;;;;22.42;11.30;;;;;;;5.89;100.00;102692.19;4934525;28;20041;-77
2022/03/26 00:34:38;;;;;;;19.80;10.00;;;;;;;5.88;100.00;102685.16;4930735;29;20027;-76
2022/03/26 00:37:04;;;;;;;19.90;9.75;;;;;;;5.88;100.00;102687.81;4948817;28;20035;-76
2022/03/26 00:39:29;;;;;;;18.13;9.40;;;;;;;5.82;100.00;102683.72;4932991;29;20035;-78
2022/03/26 00:41:55;;;;;;;15.77;9.43;;;;;;;5.68;100.00;102681.06;4934186;28;20035;-77
2022/03/26 00:44:21;;;;;;;19.05;9.70;;;;;;;5.44;100.00;102680.78;4914941;29;20039;-76
2022/03/26 00:46:47;;;;;;;15.10;8.25;;;;;;;5.21;100.00;102688.41;4914172;29;20047;-77
2022/03/26 00:49:13;;;;;;;14.88;8.50;;;;;;;4.99;100.00;102682.63;4942921;28;20122;-77
2022/03/26 00:51:39;;;;;;;18.17;9.13;;;;;;;4.88;100.00;102695.75;4917813;29;20057;-76
2022/03/26 00:54:05;;;;;;;17.67;8.68;;;;;;;4.68;100.00;102687.13;4932254;28;20039;-78
2022/03/26 00:56:30;;;;;;;15.20;8.75;;;;;;;4.55;100.00;102694.09;4947912;28;20043;-76
2022/03/26 00:58:58;;;;;;;16.67;8.57;;;;;;;4.43;100.00;102690.38;4927572;28;20037;-77
2022/03/26 01:01:24;;;;;;;17.33;8.25;;;;;;;4.35;100.00;102695.28;4941606;28;20073;-78
2022/03/26 01:03:49;;;;;;;17.60;8.88;;;;;;;4.23;100.00;102678.19;4941404;28;20031;-77
2022/03/26 01:06:15;;;;;;;19.65;9.60;;;;;;;4.13;100.00;102690.31;4942915;28;20070;-77
2022/03/26 01:08:41;;;;;;;18.73;9.35;;;;;;;3.97;100.00;102667.22;4949138;28;20039;-77
2022/03/26 01:11:06;;;;;;;20.20;10.52;;;;;;;3.99;100.00;102680.41;4917582;28;20035;-76
2022/03/26 01:13:34;;;;;;;18.92;9.65;;;;;;;3.96;100.00;102684.13;4916575;29;20039;-76
2022/03/26 01:16:01;;;;;;;15.20;8.55;;;;;;;3.95;100.00;102676.22;4949678;28;20039;-77
2022/03/26 01:18:26;;;;;;;20.70;10.00;;;;;;;4.01;100.00;102683.00;4961047;28;20035;-77
2022/03/26 01:20:52;;;;;;;20.48;10.65;;;;;;;3.99;100.00;102682.22;4929333;28;20665;-76
2022/03/26 01:23:19;;;;;;;24.55;11.00;;;;;;;4.05;100.00;102680.09;4917366;29;20035;-76
2022/03/26 01:25:47;;;;;;;20.98;10.07;;;;;;;4.12;100.00;102667.28;4950124;28;20054;-77
2022/03/26 01:28:14;;;;;;;9.73;5.43;;;;;;;4.21;100.00;102681.88;4910708;28;20035;-77
2022/03/26 01:30:41;;;;;;;20.33;9.75;;;;;;;4.28;100.00;102685.91;4961171;28;20031;-76
2022/03/26 01:33:06;;;;;;;19.63;10.27;;;;;;;4.13;100.00;102656.56;4948334;28;20031;-77
2022/03/26 01:35:32;;;;;;;22.45;11.40;;;;;;;4.31;100.00;102672.41;4934622;29;20039;-77
2022/03/26 01:38:01;;;;;;;20.55;10.73;;;;;;;4.24;100.00;102684.38;4918335;29;20469;-76
2022/03/26 01:40:27;;;;;;;22.30;10.73;;;;;;;4.11;100.00;102681.56;4919156;29;20046;-76
2022/03/26 01:42:54;;;;;;;13.48;6.85;;;;;;;4.01;100.00;102673.22;4947055;28;20523;-77
2022/03/26 01:45:20;;;;;;;21.45;10.40;;;;;;;4.00;100.00;102683.97;4945163;28;20493;-77
2022/03/26 01:47:46;;;;;;;20.83;10.38;;;;;;;3.81;100.00;102668.13;4949343;28;20031;-76
2022/03/26 01:50:11;;;;;;;22.52;10.80;;;;;;;3.76;100.00;102679.06;4932760;28;20126;-76
2022/03/26 01:52:37;;;;;;;21.30;9.95;;;;;;;3.80;100.00;102675.28;4948265;28;20039;-77
2022/03/26 01:55:03;;;;;;;21.58;10.82;;;;;;;3.80;100.00;102666.44;4947647;28;20039;-77
2022/03/26 01:57:29;;;;;;;20.05;10.30;;;;;;;3.77;100.00;102669.28;4920553;29;20047;-77
2022/03/26 01:59:55;;;;;;;21.88;10.70;;;;;;;3.74;100.00;102665.81;4922887;28;20043;-77
2022/03/26 02:02:23;;;;;;;25.25;11.48;;;;;;;3.69;100.00;102672.34;4914156;29;20490;-77
2022/03/26 02:04:49;;;;;;;24.42;11.82;;;;;;;3.70;100.00;102663.41;4929925;29;20475;-77
2022/03/26 02:07:15;;;;;;;26.95;12.45;;;;;;;3.71;100.00;102673.97;4934118;29;20046;-76
2022/03/26 02:09:43;;;;;;;12.40;7.53;;;;;;;3.64;100.00;102666.41;4931691;29;20107;-76
2022/03/26 02:12:30;;;;;;;26.83;12.52;;;;;;;3.65;100.00;102676.09;4948535;28;20046;-78
2022/03/26 02:14:57;;;;;;;26.30;12.73;;;;;;;3.46;100.00;102639.88;4933006;28;20039;-77
2022/03/26 02:17:23;;;;;;;27.35;12.63;;;;;;;3.63;100.00;102662.06;4954505;28;20040;-77
2022/03/26 02:19:51;;;;;;;22.38;10.20;;;;;;;3.91;100.00;102678.19;4934879;29;20046;-77
2022/03/26 02:22:17;;;;;;;26.90;12.32;;;;;;;4.03;100.00;102673.16;4939080;29;20498;-77
2022/03/26 02:24:43;;;;;;;31.25;14.52;;;;;;;4.11;100.00;102673.56;4924063;29;20047;-76
2022/03/26 02:27:09;;;;;;;27.30;13.27;;;;;;;4.11;100.00;102668.25;4919759;28;20046;-78
2022/03/26 02:29:35;;;;;;;27.17;12.57;;;;;;;4.08;100.00;102668.44;4948761;28;20043;-77
2022/03/26 02:32:01;;;;;;;28.10;13.80;;;;;;;4.26;100.00;102663.81;4942839;28;20047;-77
2022/03/26 02:34:27;;;;;;;29.73;13.85;;;;;;;4.17;100.00;102660.75;4947815;28;20035;-77
2022/03/26 02:36:57;;;;;;;25.83;11.57;;;;;;;4.09;100.00;102664.81;4936139;28;20061;-77
2022/03/26 02:39:23;;;;;;;29.02;13.13;;;;;;;3.99;100.00;102659.13;4930692;29;20122;-76
2022/03/26 02:41:48;;;;;;;27.13;13.55;;;;;;;3.85;100.00;102651.06;4949020;28;20118;-77
2022/03/26 02:44:14;;;;;;;24.88;12.60;;;;;;;3.80;100.00;102664.63;4939256;28;20052;-77
2022/03/26 02:46:39;;;;;;;28.98;13.77;;;;;;;3.64;100.00;102658.44;4922418;29;20075;-77
2022/03/26 02:49:05;;;;;;;25.08;11.25;;;;;;;3.56;100.00;102660.66;4933675;28;20097;-77
2022/03/26 02:51:31;;;;;;;31.83;12.48;;;;;;;3.49;100.00;102654.81;4940604;29;20042;-77
2022/03/26 02:53:56;;;;;;;29.70;13.00;;;;;;;3.49;100.00;102650.38;4921129;29;20054;-78
2022/03/26 02:56:22;;;;;;;28.58;13.30;;;;;;;3.41;100.00;102647.22;4935074;29;20395;-77
2022/03/26 02:58:48;;;;;;;28.95;13.18;;;;;;;3.29;100.00;102648.75;4920790;29;20208;-77
2022/03/26 03:01:14;;;;;;;23.50;10.85;;;;;;;3.22;100.00;102643.84;4919944;29;20050;-77
2022/03/26 03:03:40;;;;;;;29.67;12.80;;;;;;;3.31;100.00;102635.41;4951301;28;20031;-78
2022/03/26 03:06:05;;;;;;;30.52;12.90;;;;;;;3.43;100.00;102647.16;4919360;29;20085;-77
2022/03/26 03:08:31;;;;;;;20.63;9.10;;;;;;;3.50;100.00;102641.44;4952208;28;20039;-77
2022/03/26 03:10:57;;;;;;;30.02;13.88;;;;;;;3.49;100.00;102637.06;4919678;28;20043;-77
2022/03/26 03:13:22;;;;;;;32.17;12.27;;;;;;;3.48;100.00;102632.66;4949304;28;20086;-77
2022/03/26 03:15:50;;;;;;;29.85;13.32;;;;;;;3.50;100.00;102636.13;4932805;29;20081;-77
2022/03/26 03:18:15;;;;;;;33.95;14.55;;;;;;;3.51;100.00;102631.66;4930219;29;20059;-77
2022/03/26 03:20:41;;;;;;;24.45;11.27;;;;;;;3.42;100.00;102624.19;4937338;29;20147;-77
2022/03/26 03:23:07;;;;;;;28.95;12.40;;;;;;;3.43;100.00;102629.41;4918420;28;20039;-77
2022/03/26 03:25:33;;;;;;;33.85;13.43;;;;;;;3.47;100.00;102636.28;4951996;28;20522;-77
2022/03/26 03:27:58;;;;;;;24.27;11.30;;;;;;;3.45;100.00;102629.34;4920921;28;20141;-77
2022/03/26 03:30:25;;;;;;;32.75;14.85;;;;;;;3.45;100.00;102632.00;4948493;28;20130;-77
2022/03/26 03:32:51;;;;;;;39.33;15.82;;;;;;;3.43;100.00;102628.56;4948017;28;20101;-77
2022/03/26 03:35:17;;;;;;;31.17;13.75;;;;;;;3.34;100.00;102631.72;4943909;28;20042;-77
2022/03/26 03:37:43;;;;;;;31.65;14.10;;;;;;;3.28;100.00;102627.56;4925830;29;20118;-77
2022/03/26 03:40:10;;;;;;;39.75;15.38;;;;;;;3.28;100.00;102630.22;4932085;28;20122;-78
2022/03/26 03:42:35;;;;;;;34.35;15.43;;;;;;;3.30;100.00;102628.34;4945050;28;20035;-77
2022/03/26 03:45:01;;;;;;;34.90;13.40;;;;;;;3.28;100.00;102631.13;4933314;28;20687;-77
2022/03/26 03:47:27;;;;;;;36.00;17.13;;;;;;;3.25;100.00;102641.03;4917247;29;20038;-78
2022/03/26 03:49:54;;;;;;;37.42;16.13;;;;;;;3.22;100.00;102641.19;4933213;28;20038;-77
2022/03/26 03:52:20;;;;;;;34.42;15.27;;;;;;;3.31;100.00;102640.72;4934699;29;20070;-78
2022/03/26 03:54:46;;;;;;;37.22;18.08;;;;;;;3.38;100.00;102635.91;4949508;28;20137;-77
2022/03/26 03:57:11;;;;;;;35.85;15.88;;;;;;;3.41;100.00;102641.91;4932032;28;20474;-78
2022/03/26 03:59:41;;;;;;;38.47;16.75;;;;;;;3.41;100.00;102646.38;4917310;29;20039;-77
2022/03/26 04:02:10;;;;;;;22.08;10.35;;;;;;;3.42;100.00;102641.00;4917671;28;20031;-77
2022/03/26 04:04:40;;;;;;;35.78;15.00;;;;;;;3.33;100.00;102627.31;4934648;29;20027;-77
2022/03/26 04:07:07;;;;;;;28.13;13.05;;;;;;;3.38;100.00;102639.44;4931929;28;20031;-77
2022/03/26 04:09:33;;;;;;;35.05;15.05;;;;;;;3.38;100.00;102647.41;4933870;29;20066;-77
2022/03/26 04:12:00;;;;;;;43.42;15.60;;;;;;;3.27;100.00;102647.13;4946144;28;20159;-77
2022/03/26 04:14:38;;;;;;;34.45;15.05;;;;;;;3.17;100.00;102645.91;4934028;29;20043;-78
2022/03/26 04:17:05;;;;;;;40.38;16.77;;;;;;;3.11;100.00;102652.41;4934367;28;20035;-77
2022/03/26 04:19:30;;;;;;;26.27;11.10;;;;;;;3.17;100.00;102641.44;4931184;29;20510;-77
2022/03/26 04:21:56;;;;;;;25.27;11.50;;;;;;;3.34;100.00;102648.53;4929342;28;20031;-77
2022/03/26 04:24:22;;;;;;;42.40;17.67;;;;;;;3.51;100.00;102648.47;4911746;29;20463;-77
2022/03/26 04:26:47;;;;;;;33.38;13.65;;;;;;;3.61;100.00;102645.31;4964034;28;20027;-77
2022/03/26 04:29:13;;;;;;;43.45;17.52;;;;;;;3.63;100.00;102651.41;4931979;28;20043;-78
2022/03/26 04:31:38;;;;;;;32.67;14.23;;;;;;;3.58;100.00;102649.00;4932028;29;20058;-77
2022/03/26 04:34:04;;;;;;;37.38;15.95;;;;;;;3.56;100.00;102653.53;4948834;28;20035;-77
2022/03/26 04:36:31;;;;;;;38.60;17.23;;;;;;;3.48;100.00;102650.44;4948453;28;20070;-77
2022/03/26 04:38:58;;;;;;;30.15;13.57;;;;;;;3.40;100.00;102656.16;4957505;28;20075;-78
2022/03/26 04:41:24;;;;;;;39.17;16.73;;;;;;;3.40;100.00;102650.00;4961626;28;20035;-77
2022/03/26 04:43:50;;;;;;;26.05;13.02;;;;;;;3.37;100.00;102653.69;4914267;28;20038;-77
2022/03/26 04:46:16;;;;;;;25.13;12.80;;;;;;;3.41;100.00;102652.56;4944466;28;20068;-77
2022/03/26 04:48:42;;;;;;;30.15;13.95;;;;;;;3.53;100.00;102654.56;4934875;29;20479;-77
2022/03/26 04:51:07;;;;;;;39.97;15.32;;;;;;;3.52;100.00;102654.66;4947600;28;20035;-77
2022/03/26 04:53:33;;;;;;;35.33;19.27;;;;;;;3.72;100.00;102656.22;4934300;29;20046;-78
2022/03/26 04:55:59;;;;;;;31.42;15.68;;;;;;;3.92;100.00;102661.28;4918478;28;20039;-77
2022/03/26 04:58:24;;;;;;;26.20;12.50;;;;;;;3.95;100.00;102662.94;4933527;29;20035;-78
2022/03/26 05:00:50;;;;;;;32.30;13.27;;;;;;;3.94;100.00;102661.19;4913143;28;20050;-77
2022/03/26 05:03:15;;;;;;;41.88;18.13;;;;;;;3.96;100.00;102660.16;4931283;29;20043;-78
2022/03/26 05:05:41;;;;;;;45.97;16.83;;;;;;;3.91;100.00;102662.22;4932465;29;20524;-78
2022/03/26 05:08:07;;;;;;;33.20;14.43;;;;;;;3.89;100.00;102663.25;4914000;28;20550;-78
2022/03/26 05:10:33;;;;;;;34.58;17.08;;;;;;;3.84;100.00;102671.50;4948368;28;20039;-78
2022/03/26 05:12:58;;;;;;;24.30;10.38;;;;;;;3.68;100.00;102668.84;4922279;28;20035;-78
2022/03/26 05:15:27;;;;;;;44.60;16.80;;;;;;;3.60;100.00;102664.84;4951043;28;20032;-77
2022/03/26 05:17:59;;;;;;;38.28;17.45;;;;;;;3.64;100.00;102663.75;4947488;28;20106;-77
2022/03/26 05:20:25;;;;;;;35.83;17.38;;;;;;;3.74;100.00;102668.50;4917433;29;20067;-78
2022/03/26 05:22:51;;;;;;;44.92;18.67;;;;;;;3.86;100.00;102674.06;4918896;28;20054;-79
2022/03/26 05:25:17;;;;;;;41.63;18.35;;;;;;;3.89;100.00;102676.56;4934491;29;20050;-78
2022/03/26 05:27:50;;;;;;;19.25;11.27;;;;;;;3.89;100.00;102680.09;4945325;28;20082;-78
2022/03/26 05:30:17;;;;;;;17.63;10.20;;;;;;;3.86;100.00;102671.41;4945019;28;20093;-78
2022/03/26 05:32:43;;;;;;;35.28;15.30;;;;;;;3.89;100.00;102681.88;4949054;28;20034;-78
2022/03/26 05:35:13;;;;;;;41.17;15.68;;;;;;;3.88;100.00;102677.50;4920646;28;20039;-78
2022/03/26 05:37:44;;;;;;;25.42;15.32;;;;;;;3.79;100.00;102680.69;4948876;28;20039;-77
2022/03/26 05:40:11;;;;;;;25.75;12.23;;;;;;;3.66;100.00;102677.84;4913417;28;20086;-77
2022/03/26 05:42:37;;;;;;;27.90;14.15;;;;;;;3.64;100.00;102669.94;4943970;28;20039;-78
2022/03/26 05:45:06;;;;;;;40.97;18.05;;;;;;;3.71;100.00;102691.75;4922453;28;20039;-77
2022/03/26 05:47:33;;;;;;;31.27;14.20;;;;;;;3.66;100.00;102683.16;4965754;28;20118;-76
2022/03/26 05:49:59;;;;;;;36.80;16.42;;;;;;;3.59;100.00;102681.78;4932637;28;20493;-77
2022/03/26 05:52:25;;;;;;;32.70;12.60;;;;;;;3.53;100.00;102677.66;4931856;29;20043;-78
2022/03/26 05:54:50;;;;;;;39.63;18.02;;;;;;;3.41;100.00;102673.81;4942556;28;20035;-77
2022/03/26 05:57:17;;;;;;;37.25;16.65;;;;;;;3.34;100.00;102691.06;4951250;28;20054;-77
2022/03/26 05:59:42;;;;;;;36.38;16.67;;;;;;;3.19;100.00;102684.75;4922584;29;20367;-77
2022/03/26 06:02:11;;;;;;;28.92;12.30;;;;;;;3.20;100.00;102690.91;4937104;28;20042;-77
2022/03/26 06:04:37;;;;;;;34.95;16.02;;;;;;;3.16;100.00;102692.03;4936926;29;20050;-77
2022/03/26 06:07:02;;;;;;;39.13;17.05;;;;;;;3.11;100.00;102681.63;4934297;28;20035;-77
2022/03/26 06:09:28;;;;;;;25.63;12.73;;;;;;;3.15;100.00;102687.63;4952794;28;20042;-77
2022/03/26 06:11:55;;;;;;;23.20;12.23;;;;;;;3.18;100.00;102692.81;4951236;28;20368;-77
2022/03/26 06:14:21;;;;;;;40.63;17.25;;;;;;;3.25;100.00;102700.38;4951046;28;20057;-77
2022/03/26 06:16:47;;;;;;;35.15;17.45;;;;;;;3.28;100.00;102691.38;4952156;28;20474;-77
2022/03/26 06:19:13;;;;;;;39.08;16.52;;;;;;;3.40;100.00;102700.53;4918404;28;20043;-77
2022/03/26 06:21:39;;;;;;;46.90;18.73;;;;;;;3.40;100.00;102700.53;4967763;28;20138;-77
2022/03/26 06:24:05;;;;;;;34.58;15.75;;;;;;;3.40;100.00;102704.03;4936392;28;20114;-77
2022/03/26 06:26:31;;;;;;;40.05;17.55;;;;;;;3.37;100.00;102711.31;4936583;29;20042;-77
2022/03/26 06:28:57;;;;;;;36.85;15.45;;;;;;;3.41;100.00;102705.75;4921508;28;20031;-77
2022/03/26 06:31:23;;;;;;;31.08;12.77;;;;;;;3.42;100.00;102706.63;4935916;29;20142;-77
2022/03/26 06:33:49;;;;;;;33.17;17.23;;;;;;;3.44;100.00;102710.03;4949376;28;20380;-77
2022/03/26 06:36:16;;;;;;;35.92;15.25;;;;;;;3.50;100.00;102710.59;4950261;28;20069;-78
2022/03/26 06:38:44;;;;;;;39.00;15.63;;;;;;;3.55;100.00;102712.13;4968924;28;20045;-77
2022/03/26 06:41:10;;;;;;;42.13;16.35;;;;;;;3.52;100.00;102711.38;4955274;28;20049;-77
2022/03/26 06:43:39;;;;;;;25.83;13.10;;;;;;;3.51;100.00;102717.59;4941579;29;20071;-77
2022/03/26 06:46:05;;;;;;;39.65;16.30;;;;;;;3.53;100.00;102704.25;4941450;28;20459;-77
2022/03/26 06:48:33;;;;;;;25.10;11.23;;;;;;;3.59;100.00;102708.38;4943710;28;20046;-77
2022/03/26 06:51:02;;;;;;;35.33;15.15;;;;;;;3.61;100.00;102723.31;4958906;28;20039;-78
2022/03/26 06:53:29;;;;;;;38.88;15.75;;;;;;;3.69;100.00;102721.09;4927389;29;21514;-78
2022/03/26 06:55:55;;;;;;;40.20;16.17;;;;;;;3.93;100.00;102729.53;4927186;28;20042;-78
2022/03/26 06:58:21;;;;;;;30.42;15.63;;;;;;;4.11;100.00;102729.47;4958071;28;20075;-78
2022/03/26 07:00:46;;;;;;;32.75;13.15;;;;;;;4.18;100.00;102718.41;4946520;28;20077;-78
2022/03/26 07:03:12;;;;;;;36.38;17.05;;;;;;;4.43;100.00;102717.00;4942475;28;20804;-79
2022/03/26 07:05:38;;;;;;;22.52;11.20;;;;;;;4.73;100.00;102729.50;4945092;28;20039;-77
2022/03/26 07:08:04;;;;;;;33.15;14.32;;;;;;;4.86;100.00;102733.16;4943876;28;20483;-77
2022/03/26 07:10:30;;;;;;;28.77;13.55;;;;;;;4.92;100.00;102714.16;4943154;28;20034;-76
2022/03/26 07:12:56;;;;;;;34.47;15.25;;;;;;;5.16;100.00;102733.16;4957300;28;20027;-77
2022/03/26 07:15:21;;;;;;;16.25;10.25;;;;;;;5.35;100.00;102738.25;4941474;28;20039;-76
2022/03/26 07:17:47;;;;;;;39.75;16.42;;;;;;;5.56;100.00;102738.75;4928725;29;20471;-78
2022/03/26 07:20:15;;;;;;;31.08;13.95;;;;;;;5.61;100.00;102733.09;4948448;28;20064;-76
2022/03/26 07:22:42;;;;;;;31.30;14.07;;;;;;;5.75;100.00;102735.78;4927960;29;20700;-76
2022/03/26 07:25:09;;;;;;;38.08;14.73;;;;;;;5.90;100.00;102732.16;4943272;28;20027;-77
2022/03/26 07:27:35;;;;;;;37.45;15.77;;;;;;;5.98;100.00;102731.69;4958085;28;20094;-78
2022/03/26 07:30:01;;;;;;;23.10;11.77;;;;;;;6.20;100.00;102727.66;4927569;28;20478;-79
2022/03/26 07:32:27;;;;;;;23.80;12.75;;;;;;;6.36;100.00;102726.53;4943710;28;20117;-80
2022/03/26 07:34:53;;;;;;;22.73;10.70;;;;;;;6.64;100.00;102732.72;4943651;28;20134;-78
2022/03/26 07:37:19;;;;;;;26.52;12.75;;;;;;;6.91;100.00;102739.91;4928057;29;20126;-78
2022/03/26 07:39:45;;;;;;;22.00;10.75;;;;;;;7.50;97.71;102740.28;4929675;29;20421;-78
2022/03/26 07:42:11;;;;;;;25.08;12.07;;;;;;;7.93;95.96;102742.59;4911928;28;20042;-79
2022/03/26 07:44:37;;;;;;;37.20;15.52;;;;;;;8.51;92.67;102741.06;4958841;28;20035;-78
2022/03/26 07:47:03;;;;;;;29.63;15.35;;;;;;;9.23;88.00;102746.34;4941992;28;20027;-78
2022/03/26 07:49:28;;;;;;;23.92;12.25;;;;;;;9.72;85.22;102738.97;4933482;29;20031;-79
2022/03/26 07:51:54;;;;;;;26.60;13.73;;;;;;;10.13;82.04;102741.03;4949576;28;20035;-79
2022/03/26 07:54:20;;;;;;;22.75;13.00;;;;;;;10.40;81.38;102746.97;4935826;29;20023;-78
2022/03/26 07:56:45;;;;;;;23.23;12.65;;;;;;;10.69;78.79;102741.88;4932013;29;20128;-78
2022/03/26 07:59:11;;;;;;;32.30;12.82;;;;;;;10.99;78.46;102738.47;4915240;28;20038;-76
2022/03/26 08:01:37;;;;;;;35.55;14.52;;;;;;;11.36;76.51;102746.94;4963903;28;20140;-77
2022/03/26 08:04:03;;;;;;;30.70;15.35;;;;;;;11.69;74.16;102753.06;4916387;28;20047;-79
2022/03/26 08:06:28;;;;;;;35.03;14.27;;;;;;;11.96;72.24;102746.25;4931135;28;20031;-79
2022/03/26 08:08:54;;;;;;;30.48;14.98;;;;;;;12.11;71.52;102747.59;4931516;28;20035;-77
2022/03/26 08:11:19;;;;;;;31.38;15.38;;;;;;;12.28;69.37;102744.22;4947495;28;20063;-76
2022/03/26 08:13:45;;;;;;;29.00;15.15;;;;;;;12.65;68.99;102746.28;4916752;29;20046;-76
2022/03/26 08:16:11;;;;;;;35.22;15.48;;;;;;;12.95;67.18;102750.69;4915199;28;20478;-76
2022/03/26 08:18:37;;;;;;;29.60;13.13;;;;;;;13.28;64.55;102759.34;4929649;29;20035;-76
2022/03/26 08:21:03;;;;;;;29.15;13.88;;;;;;;13.62;63.84;102761.53;4949615;28;20218;-76
2022/03/26 08:23:29;;;;;;;24.27;13.60;;;;;;;13.88;61.13;102740.09;4929479;29;20042;-77
2022/03/26 08:28:39;;;;;;;23.67;15.38;;;;;;;14.37;58.03;102751.53;4944161;28;20043;-76
2022/03/26 08:31:06;;;;;;;17.50;12.02;;;;;;;14.67;55.92;102761.16;4914416;28;20379;-77
2022/03/26 08:33:31;;;;;;;29.77;13.88;;;;;;;14.76;56.38;102756.69;4938405;29;20046;-78
2022/03/26 08:35:57;;;;;;;25.52;12.88;;;;;;;15.12;55.65;102756.66;4943271;28;20035;-78
2022/03/26 08:38:23;;;;;;;28.10;14.50;;;;;;;15.51;55.81;102757.13;4928247;29;20035;-75
2022/03/26 08:40:48;;;;;;;28.52;14.18;;;;;;;15.81;52.04;102763.94;4925252;29;20129;-78
2022/03/26 08:43:14;;;;;;;31.98;15.52;;;;;;;16.19;51.75;102761.72;4940044;28;20035;-76
2022/03/26 08:45:40;;;;;;;22.48;10.98;;;;;;;16.55;49.16;102752.50;4916379;29;20046;-77
2022/03/26 08:48:06;;;;;;;25.70;11.65;;;;;;;16.80;48.36;102767.00;4927592;28;20035;-78
2022/03/26 08:50:32;;;;;;;27.83;15.05;;;;;;;17.04;46.14;102769.75;4933187;28;20058;-76
2022/03/26 08:52:58;;;;;;;32.05;16.00;;;;;;;17.11;46.95;102772.63;4908538;28;20067;-76
2022/03/26 08:55:24;;;;;;;32.05;17.13;;;;;;;17.29;46.70;102775.16;4956797;28;20554;-76
2022/03/26 08:57:49;;;;;;;31.98;16.00;;;;;;;17.72;45.56;102770.31;4945683;28;20031;-76
2022/03/26 09:00:16;;;;;;;31.73;16.15;;;;;;;18.07;45.73;102769.03;4927055;28;20434;-76
2022/03/26 09:02:41;;;;;;;34.03;16.45;;;;;;;18.58;43.69;102766.75;4953074;28;20187;-77
2022/03/26 09:05:07;;;;;;;33.70;15.40;;;;;;;18.92;42.96;102779.16;4938822;28;20066;-77
2022/03/26 09:07:34;;;;;;;29.33;15.00;;;;;;;19.22;41.91;102771.91;4939881;28;20046;-76
2022/03/26 09:09:59;;;;;;;22.88;12.82;;;;;;;19.58;40.44;102778.53;4940176;28;20542;-76
2022/03/26 09:12:25;;;;;;;31.98;17.02;;;;;;;19.89;38.67;102776.50;4941863;28;20055;-77
2022/03/26 09:14:51;;;;;;;30.65;15.68;;;;;;;19.69;38.17;102764.50;4928778;28;20066;-76
2022/03/26 09:17:17;;;;;;;32.35;18.77;;;;;;;19.95;37.20;102753.94;4930915;29;20039;-76
2022/03/26 09:19:42;;;;;;;26.50;14.90;;;;;;;19.85;38.14;102774.38;4930607;28;20074;-76
2022/03/26 09:22:08;;;;;;;26.70;14.07;;;;;;;19.76;39.05;102776.34;4952823;28;20042;-77
2022/03/26 09:24:34;;;;;;;34.20;16.80;;;;;;;19.61;38.84;102773.56;4933852;29;20035;-77
2022/03/26 09:27:02;;;;;;;35.10;17.70;;;;;;;19.67;39.24;102780.19;4932736;28;20474;-76
2022/03/26 09:29:27;;;;;;;29.67;14.40;;;;;;;19.96;39.25;102773.88;4933684;29;20035;-76
2022/03/26 09:31:54;;;;;;;34.63;16.58;;;;;;;20.18;40.11;102750.22;4921303;28;20501;-78
2022/03/26 09:34:21;;;;;;;31.38;16.48;;;;;;;21.05;37.89;102784.81;4942253;29;20282;-77
2022/03/26 09:36:47;;;;;;;26.15;12.98;;;;;;;21.06;35.11;102768.22;4939096;29;20031;-75
2022/03/26 09:39:13;;;;;;;38.03;17.90;;;;;;;20.93;37.61;102781.78;4942843;28;20129;-76
2022/03/26 09:41:39;;;;;;;30.92;15.77;;;;;;;21.09;34.92;102799.81;4938648;29;20469;-76
2022/03/26 09:44:06;;;;;;;23.75;12.48;;;;;;;20.89;35.84;102793.31;4921798;29;20043;-76
2022/03/26 09:46:35;;;;;;;29.70;13.68;;;;;;;20.77;35.72;102788.34;4942549;29;20042;-76
2022/03/26 09:49:02;;;;;;;37.08;17.73;;;;;;;20.68;36.55;102786.78;4976128;28;20035;-76
2022/03/26 09:51:28;;;;;;;39.05;17.33;;;;;;;21.10;37.00;102786.97;4953504;29;20372;-76
2022/03/26 09:53:54;;;;;;;30.98;12.93;;;;;;;21.69;34.89;102792.09;4929430;28;20049;-76
2022/03/26 09:56:20;;;;;;;32.75;16.52;;;;;;;21.70;33.90;102786.44;4959223;28;20441;-77
2022/03/26 09:58:46;;;;;;;32.28;15.77;;;;;;;21.79;34.20;102787.09;4961040;28;20450;-75
2022/03/26 10:01:12;;;;;;;35.00;16.83;;;;;;;21.96;34.50;102784.88;4938652;28;20043;-77
2022/03/26 10:03:40;;;;;;;29.85;14.77;;;;;;;22.44;33.59;102786.81;4940709;29;20039;-80
2022/03/26 10:06:09;;;;;;;30.95;12.65;;;;;;;22.80;34.04;102784.56;4945053;28;20027;-79
2022/03/26 10:08:40;;;;;;;40.17;17.30;;;;;;;23.24;33.51;102774.94;4923972;29;20047;-79
2022/03/26 10:11:09;;;;;;;34.63;17.95;;;;;;;23.45;32.23;102784.84;4944961;28;20130;-79
2022/03/26 10:13:38;;;;;;;31.17;16.73;;;;;;;23.57;31.63;102775.97;4946498;29;20031;-79
2022/03/26 10:16:10;;;;;;;39.88;18.40;;;;;;;23.62;32.32;102781.66;4938588;29;20090;-80
2022/03/26 10:18:41;;;;;;;37.90;19.50;;;;;;;23.89;30.86;102775.06;4952956;28;20031;-79
2022/03/26 10:21:13;;;;;;;34.72;17.88;;;;;;;24.11;30.87;102783.03;4936860;29;20039;-80
2022/03/26 10:23:43;;;;;;;35.15;18.60;;;;;;;24.28;30.47;102766.88;4947990;29;20055;-80
2022/03/26 10:26:16;;;;;;;33.80;15.57;;;;;;;24.64;31.06;102771.81;4927464;29;20154;-79
2022/03/26 10:28:42;;;;;;;;;;;;;;;24.97;29.79;102784.47;4919054;29;20607;-79
2022/03/26 10:34:07;;;;;;;38.03;18.35;;;;;;;25.16;29.55;102789.00;4945222;29;20111;-80
2022/03/26 10:36:37;;;;;;;35.30;17.02;;;;;;;25.21;29.66;102777.31;4966469;28;20169;-79
2022/03/26 10:39:05;;;;;;;34.30;18.17;;;;;;;25.30;29.25;102780.63;4935939;29;20501;-79
2022/03/26 10:41:33;;;;;;;39.75;22.40;;;;;;;25.35;29.16;102783.56;4948289;29;20109;-79
2022/03/26 10:44:07;;;;;;;37.72;19.15;;;;;;;25.96;27.67;102774.50;4922115;29;20035;-80
2022/03/26 10:46:57;;;;;;;32.28;17.77;;;;;;;25.96;27.65;102771.72;4958828;28;20077;-79
2022/03/26 10:49:28;;;;;;;41.20;20.48;;;;;;;25.73;27.77;102777.88;4931731;29;20043;-80
2022/03/26 10:51:54;;;;;;;41.63;17.80;;;;;;;25.88;29.10;102767.38;4955427;28;20063;-79
2022/03/26 10:54:28;;;;;;;32.15;16.42;;;;;;;26.28;26.84;102772.38;4937689;29;20102;-79
2022/03/26 10:56:53;;;;;;;36.63;18.23;;;;;;;26.23;27.29;102772.22;4932983;29;20039;-79
2022/03/26 10:59:20;;;;;;;38.78;21.55;;;;;;;26.27;25.47;102778.13;4947679;29;20110;-80
2022/03/26 11:01:46;;;;;;;37.13;19.67;;;;;;;26.31;27.46;102782.09;4949478;29;20062;-75
2022/03/26 11:04:12;;;;;;;40.30;21.38;;;;;;;26.38;28.65;102777.31;4934220;29;20039;-75
2022/03/26 11:06:39;;;;;;;41.80;20.92;;;;;;;24.91;29.23;102766.94;4925468;29;20035;-76
2022/03/26 11:09:06;;;;;;;30.05;15.88;;;;;;;25.61;28.82;102763.16;4944089;29;20043;-76
2022/03/26 11:11:32;;;;;;;38.55;18.67;;;;;;;26.05;27.81;102778.59;4911160;29;20487;-75